AirNav   Pilot Hours Calculator
 
 1288 users online  

PS72 Haig-K Heliport
Lionville, Pennsylvania, USA

GOING TO LIONVILLE?


FAA INFORMATION EFFECTIVE 07 NOVEMBER 2019

Location

FAA Identifier: PS72
Lat/Long: 40-03-53.3780N 075-36-40.7360W
40-03.889633N 075-36.678933W
40.0648272,-75.6113156
(estimated)
Elevation: 505 ft. / 154 m (estimated)
Variation: 11W (1986)
From city: 2 miles NE of LIONVILLE, PA
Time zone: UTC -5 (UTC -4 during Daylight Saving Time)
Zip code: 19425

Heliport Operations

Heliport use: Private use. Permission required prior to landing
Activation date: 04/1986
Control tower: no
ARTCC: NEW YORK CENTER
FSS: WILLIAMSPORT FLIGHT SERVICE STATION
Attendance: UNATNDD
Wind indicator: yes
Segmented circle: yes

Heliport Communications

WX AWOS-3T at OQN (5 nm S): 121.4 ((610) 692-6190)
WX ASOS at PTW (11 nm N): 119.425 (610-495-0823)
WX AWOS-3 at MQS (13 nm SW): 126.25 (610-384-6132)
WX AWOS-3 at LOM (16 nm E): 118.925 (215-646-1068)

Nearby radio navigation aids

VOR radial/distance  VOR name  Freq  Var
MXEr026/9.2MODENA VORTAC113.2009W
PTWr203/9.7POTTSTOWN VORTAC116.5009W
DQOr010/23.2DUPONT VORTAC114.0010W
OODr341/29.4WOODSTOWN VORTAC112.8010W
ETXr183/31.2EAST TEXAS VOR/DME110.2009W
LRPr105/31.4LANCASTER VOR/DME117.3009W
ARDr261/34.2YARDLEY VOR/DME108.2010W

 
NDB name  Hdg/Dist  Freq  Var  ID
AMBLER268/15.427512WING .. -. --.

Heliport Services

Runway Information

Helipad H1

Dimensions: 48 x 48 ft. / 15 x 15 m
Surface: gravel/turf
Operational restrictions: ALL OPERATIONS TO BE FROM/TO NE & NW ONLY.
Traffic pattern: leftleft
Obstructions: 37 ft. tree, 91 ft. from runway

Heliport Ownership and Management from official FAA records

Ownership: Privately-owned
Owner: DANIEL C. KURKJIAN
931 NEW COMEN ROAD
CHESTER SPRINGS, PA 19425
Phone (610) 827-7843
Manager: DANEIL C. KURKJIAN
931 NEW COMEN ROAD
CHESTER SPRINGS, PA 19425
Phone (610) 827-7843

Additional Remarks

FOR CD CTC PHILADELPHIA APCH AT 800-354-9884.

Instrument Procedures

There are no published instrument procedures at PS72.

Some nearby airports with instrument procedures:

KOQN - Brandywine Regional Airport (5 nm S)
KPTW - Heritage Field Airport (11 nm N)
N10 - Perkiomen Valley Airport (12 nm NE)
N47 - Pottstown Municipal Airport (12 nm N)
KMQS - Chester County G O Carlson Airport (13 nm SW)
N57 - New Garden Airport (16 nm SW)
KLOM - Wings Field Airport (16 nm E)
 
Loc | Ops | Rwys | IFR | FBO | Links
Com | Nav | Svcs | Stats | Notes
Area around PS72 (Haig-K Heliport)
 
Road maps at: MapQuest Bing Google
 
Aerial photo
No photo
 
Sectional chart

 
Airport distance calculator
Flying to Haig-K Heliport? Find the distance to fly.

From to PS72

Sunrise and sunset
Times for 15-Nov-2019
 Local
(UTC-5)
 Zulu
(UTC)
Morning civil twilight06:2011:20
Sunrise06:4911:49
Sunset16:4521:45
Evening civil twilight17:1422:14

Current date and time
Zulu (UTC)  15-Nov-2019 20:08:23
Local (UTC-5)  15-Nov-2019 15:08:23
 
METAR
KOQN 
5nm S 
151955Z AUTO 27006KT 10SM 09/M04 A3016 RMK AO2
KPTW 
10nm N 
151954Z AUTO 30007KT 8SM CLR 09/M06 A3017 RMK AO2 SLP216 T00891056
KMQS 
13nm SW 
151955Z AUTO 28008KT 10SM CLR 08/M04 A3018 RMK AO2
KLOM 
16nm E 
151955Z AUTO 27005KT 10SM CLR 10/M05 A3016 RMK AO2 T00971051
TAF
KPHL 
21nm SE 
151739Z 1518/1624 25008KT P6SM SCT250 FM152200 29006KT P6SM SCT250 FM160200 32006KT P6SM SCT250 FM160500 36008KT P6SM FEW250 FM160900 02012G16KT P6SM FEW250 FM161500 04015G24KT P6SM FEW250
KILG 
24nm S 
151739Z 1518/1618 30005KT P6SM FEW250 FM160100 33007KT P6SM SCT250 FM160500 01010G18KT P6SM FEW250 FM161100 02013G21KT P6SM FEW250 FM161400 03016G24KT P6SM FEW250
KRDG 
24nm NW 
151739Z 1518/1618 30010KT P6SM SCT250 FM152300 30005KT P6SM SCT250 FM160500 35007KT P6SM FEW250 FM160800 01010KT P6SM FEW250 FM161600 03011KT P6SM FEW250
NOTAMs
Click for the latest NOTAMs
NOTAMs are issued by the DoD/FAA and will open in a separate window not controlled by AirNav.

 

 
 

Would you like to see your business listed on this page?

 If your business provides an interesting product or service to pilots, flight crews, aircraft, or users of the Haig-K Heliport, you should consider listing it here.  To start the listing process, click on the button below
 
Add a business
 

Other Pages about Haig-K Heliport

Update a link
 
Copyright © AirNav, LLC. All rights reserved. Privacy Policy  Contact